Time;durP1;ratioP1;P1;durP2;ratioP2;P2;SDS_P1;SDS_P2;PMS_P1;PMS_P2;Temp;Humidity;BMP_temperature;BMP_pressure;BME280_temperature;BME280_humidity;BME280_pressure;Samples;Min_cycle;Max_cycle;Signal;HPM_P1;HPM_P2
2023/06/17 00:05:24;;;;;;;11.10;10.20;;;;;;;13.32;73.22;99042.38;436984;1256;140101;-69
2023/06/17 00:15:32;;;;;;;10.90;10.00;;;;;;;13.23;73.74;99042.77;436546;1250;140396;-69
2023/06/17 00:25:35;;;;;;;11.80;10.30;;;;;;;13.15;73.92;99033.52;436754;1256;139547;-69
2023/06/17 00:35:38;;;;;;;29.00;12.90;;;;;;;13.20;74.35;99025.95;436772;1253;139876;-69
2023/06/17 00:45:41;;;;;;;40.00;13.00;;;;;;;13.15;74.40;99029.67;436488;1255;140825;-70
2023/06/17 00:55:45;;;;;;;11.20;9.90;;;;;;;13.15;75.02;99035.89;436581;1254;139721;-70
2023/06/17 01:05:49;;;;;;;10.60;9.60;;;;;;;13.11;75.15;99030.59;436948;1254;139783;-68
2023/06/17 01:15:53;;;;;;;10.20;9.20;;;;;;;12.96;75.59;99026.85;437207;1256;141785;-69
2023/06/17 01:25:57;;;;;;;10.10;9.00;;;;;;;12.80;75.93;99018.18;436504;1253;139082;-69
2023/06/17 01:36:05;;;;;;;9.80;8.80;;;;;;;12.64;76.16;99016.29;437139;1254;139365;-67
2023/06/17 01:46:09;;;;;;;13.40;10.90;;;;;;;12.50;76.48;99025.20;437843;1254;142182;-69
2023/06/17 01:56:13;;;;;;;12.00;9.80;;;;;;;12.35;76.70;99019.88;437054;1256;140161;-68
2023/06/17 02:06:16;;;;;;;11.50;10.30;;;;;;;12.19;77.36;99011.33;436643;1255;139757;-68
2023/06/17 02:16:19;;;;;;;11.10;10.00;;;;;;;12.05;77.95;99015.55;437206;1256;139094;-68
2023/06/17 02:26:23;;;;;;;10.40;9.40;;;;;;;11.92;78.17;99019.55;436917;1255;140038;-68
2023/06/17 02:36:26;;;;;;;13.50;12.00;;;;;;;11.83;78.50;99019.50;436554;1254;139317;-69
2023/06/17 02:46:30;;;;;;;12.40;11.10;;;;;;;11.80;78.84;99019.94;436695;1257;139570;-69
2023/06/17 02:56:33;;;;;;;12.90;11.70;;;;;;;11.82;79.33;99022.29;437203;1255;140077;-69
2023/06/17 03:06:36;;;;;;;14.70;11.20;;;;;;;11.81;79.43;99024.41;436329;1257;141510;-68
2023/06/17 03:16:40;;;;;;;11.90;10.80;;;;;;;11.83;79.45;99029.50;436478;1251;139234;-68
2023/06/17 03:26:44;;;;;;;15.10;13.40;;;;;;;12.06;79.94;99034.07;435994;1254;139907;-68
2023/06/17 03:36:47;;;;;;;13.40;12.20;;;;;;;13.04;80.34;99037.41;436226;1254;140515;-68
2023/06/17 03:46:50;;;;;;;14.00;12.10;;;;;;;13.80;78.68;99032.73;436239;1255;140513;-68
2023/06/17 03:56:53;;;;;;;12.10;10.80;;;;;;;15.37;77.95;99030.16;436736;1254;140407;-67
2023/06/17 04:06:56;;;;;;;10.50;9.50;;;;;;;20.05;71.44;99022.20;436177;1255;140238;-67
2023/06/17 04:17:00;;;;;;;12.00;10.90;;;;;;;23.90;62.94;99024.63;436280;1251;139222;-68
2023/06/17 04:27:05;;;;;;;12.50;11.40;;;;;;;26.25;55.81;99024.64;436367;1251;139320;-67
2023/06/17 04:37:08;;;;;;;13.00;11.70;;;;;;;25.94;51.50;99032.80;436431;1254;138857;-68
2023/06/17 04:47:12;;;;;;;11.70;10.70;;;;;;;23.99;51.40;99038.54;436376;1254;139133;-67
2023/06/17 04:57:16;;;;;;;11.90;10.30;;;;;;;26.50;50.41;99046.82;436227;1251;139039;-69
2023/06/17 05:07:19;;;;;;;11.20;10.30;;;;;;;31.93;44.55;99037.98;436400;1251;140031;-69
2023/06/17 05:17:22;;;;;;;10.90;9.80;;;;;;;36.04;38.28;99032.61;436414;1251;139605;-68
2023/06/17 05:27:25;;;;;;;10.80;9.70;;;;;;;38.37;33.72;99029.05;436242;1251;138515;-67
2023/06/17 05:37:28;;;;;;;10.20;9.50;;;;;;;40.29;30.28;99028.52;436187;1251;138835;-67
2023/06/17 05:47:31;;;;;;;9.40;8.60;;;;;;;41.97;27.80;99028.38;436683;1254;139029;-69
2023/06/17 05:57:35;;;;;;;12.00;9.50;;;;;;;43.56;25.55;99026.64;436514;1251;139978;-68
2023/06/17 06:07:40;;;;;;;9.20;8.30;;;;;;;45.08;23.76;99029.41;437164;1254;138411;-69
2023/06/17 06:17:44;;;;;;;9.40;8.60;;;;;;;46.36;22.11;99028.23;436649;1254;139044;-69
2023/06/17 06:27:49;;;;;;;8.00;7.30;;;;;;;47.60;20.86;99033.36;436183;1251;139023;-71
2023/06/17 06:37:53;;;;;;;8.60;8.00;;;;;;;48.04;19.77;99037.85;436937;1251;138859;-70
2023/06/17 06:47:56;;;;;;;8.80;8.00;;;;;;;46.04;19.53;99036.70;436405;1254;139817;-70
2023/06/17 06:58:00;;;;;;;13.50;8.40;;;;;;;46.40;19.66;99036.13;436346;1251;138992;-68
2023/06/17 07:08:03;;;;;;;19.70;9.40;;;;;;;47.49;18.66;99037.10;436475;1251;139929;-69
2023/06/17 07:18:06;;;;;;;11.70;8.40;;;;;;;48.88;18.09;99034.00;436536;1254;139262;-68
2023/06/17 07:28:09;;;;;;;29.40;10.00;;;;;;;50.46;16.70;99031.38;436126;1251;138385;-69
2023/06/17 07:38:12;;;;;;;9.30;8.10;;;;;;;50.36;16.64;99022.70;436277;1251;139309;-69
2023/06/17 07:48:16;;;;;;;10.70;6.80;;;;;;;50.82;16.26;99017.08;436120;1252;138641;-67
2023/06/17 07:58:20;;;;;;;7.80;7.20;;;;;;;46.18;17.26;99008.23;436440;1251;138269;-67
2023/06/17 08:08:23;;;;;;;12.00;9.80;;;;;;;39.20;20.91;99005.85;436287;1254;139245;-68
2023/06/17 08:18:26;;;;;;;9.50;8.60;;;;;;;35.29;24.10;99002.64;436279;1251;138598;-63
2023/06/17 08:28:29;;;;;;;16.90;8.30;;;;;;;32.31;27.12;98999.63;435888;1254;138108;-65
2023/06/17 08:38:32;;;;;;;11.60;9.40;;;;;;;30.88;29.31;99008.48;436289;1254;140027;-65
2023/06/17 08:48:36;;;;;;;7.40;6.70;;;;;;;30.60;30.45;99007.90;436340;1254;138734;-64
2023/06/17 08:58:39;;;;;;;9.10;7.30;;;;;;;30.40;31.04;99010.16;436274;1254;138449;-65
2023/06/17 09:08:46;;;;;;;8.50;6.10;;;;;;;30.56;31.31;99007.35;436471;1251;138007;-66
2023/06/17 09:18:55;;;;;;;6.30;5.80;;;;;;;29.82;32.25;99000.80;436189;1251;138707;-65
2023/06/17 09:29:02;;;;;;;7.10;5.60;;;;;;;29.68;32.57;98998.64;435831;1251;139424;-66
2023/06/17 09:39:08;;;;;;;6.50;5.80;;;;;;;28.90;32.75;98999.71;435610;1251;138546;-66
2023/06/17 09:49:15;;;;;;;34.90;10.30;;;;;;;28.34;33.86;98998.41;441019;1250;140653;-65
2023/06/17 09:59:21;;;;;;;6.20;5.30;;;;;;;28.35;34.29;98997.11;436516;1251;138917;-65
2023/06/17 10:09:24;;;;;;;6.50;4.90;;;;;;;28.10;34.43;98992.73;436073;1251;138755;-65
2023/06/17 10:19:31;;;;;;;6.80;5.40;;;;;;;28.43;33.74;98983.09;436427;1254;140624;-65
2023/06/17 10:29:34;;;;;;;;;;;;;;;27.90;34.01;98987.35;436805;1251;138708;-66
2023/06/17 10:39:37;;;;;;;5.80;5.30;;;;;;;27.51;34.45;98980.54;436648;1253;127430;-66
2023/06/17 10:49:40;;;;;;;5.40;4.90;;;;;;;26.92;35.36;98983.95;436729;1251;140096;-67
2023/06/17 10:59:43;;;;;;;6.60;4.60;;;;;;;26.72;35.71;98984.92;436889;1251;138168;-65
2023/06/17 11:09:46;;;;;;;4.90;4.50;;;;;;;25.79;36.71;98985.33;436151;1253;139793;-66
2023/06/17 11:19:50;;;;;;;5.20;4.80;;;;;;;25.43;37.18;98992.03;436219;1250;138704;-66
2023/06/17 11:29:53;;;;;;;6.80;4.70;;;;;;;25.31;37.26;98987.88;436364;1254;138772;-66
2023/06/17 11:39:57;;;;;;;4.70;4.30;;;;;;;25.48;37.59;98987.56;436130;1254;138231;-65
2023/06/17 11:50:01;;;;;;;5.30;4.60;;;;;;;24.97;37.95;98988.81;436258;1251;139715;-65
2023/06/17 12:00:09;;;;;;;4.80;4.30;;;;;;;24.71;38.47;98984.43;436696;1250;139727;-65
2023/06/17 12:10:12;;;;;;;5.10;4.60;;;;;;;24.73;39.06;98990.80;435899;1250;138126;-65
2023/06/17 12:20:17;;;;;;;6.80;5.50;;;;;;;25.15;39.16;98983.67;437204;1253;140269;-65
2023/06/17 12:30:20;;;;;;;5.30;4.80;;;;;;;25.91;38.24;98976.65;436688;1251;139396;-65
2023/06/17 12:40:23;;;;;;;5.70;4.20;;;;;;;26.24;37.35;98975.27;436695;1251;138226;-66
2023/06/17 12:50:26;;;;;;;5.70;4.50;;;;;;;26.26;36.67;98974.77;436207;1253;138693;-65
2023/06/17 13:00:29;;;;;;;4.40;4.10;;;;;;;26.60;36.54;98974.13;435978;1251;138557;-65
2023/06/17 13:10:32;;;;;;;3.90;3.60;;;;;;;26.63;36.09;98966.65;436182;1251;139255;-65
2023/06/17 13:20:35;;;;;;;4.10;3.30;;;;;;;26.58;35.90;98960.19;436030;1253;138612;-64
2023/06/17 13:30:38;;;;;;;3.90;3.60;;;;;;;26.90;35.44;98957.50;436012;1251;139243;-64
2023/06/17 13:40:41;;;;;;;4.50;4.20;;;;;;;26.70;34.97;98953.10;436210;1251;138043;-66
2023/06/17 13:50:44;;;;;;;6.40;3.90;;;;;;;26.20;35.11;98950.24;436127;1254;138026;-66
2023/06/17 14:00:47;;;;;;;3.70;3.50;;;;;;;26.05;35.31;98951.48;436209;1250;138556;-64
2023/06/17 14:10:50;;;;;;;4.60;3.50;;;;;;;25.92;35.22;98948.08;436188;1254;138499;-66
2023/06/17 14:20:53;;;;;;;4.10;3.60;;;;;;;25.80;35.12;98950.16;436192;1251;138049;-65
2023/06/17 14:30:56;;;;;;;3.40;3.20;;;;;;;25.62;35.30;98945.31;436206;1250;139619;-66
2023/06/17 14:40:59;;;;;;;3.90;3.60;;;;;;;25.59;35.75;98948.48;436916;1251;138658;-67
2023/06/17 14:51:02;;;;;;;6.90;3.70;;;;;;;25.65;35.86;98955.11;436173;1251;138617;-66
2023/06/17 15:01:06;;;;;;;4.70;3.70;;;;;;;25.58;36.14;98958.97;437037;1251;139519;-66
2023/06/17 15:11:09;;;;;;;5.10;4.60;;;;;;;25.25;36.89;98962.38;436931;1251;139644;-66
2023/06/17 15:21:12;;;;;;;4.30;2.80;;;;;;;24.90;37.98;98958.98;436314;1251;139189;-67
2023/06/17 15:31:15;;;;;;;4.00;3.00;;;;;;;24.57;38.87;98952.80;436318;1251;138044;-66
2023/06/17 15:41:18;;;;;;;6.30;2.90;;;;;;;24.35;39.41;98955.12;436333;1256;138515;-65
2023/06/17 15:51:21;;;;;;;4.50;2.30;;;;;;;24.13;39.74;98954.88;436428;1254;138505;-66
2023/06/17 16:01:24;;;;;;;3.50;2.70;;;;;;;23.95;40.13;98958.55;436555;1254;139885;-66
2023/06/17 16:11:27;;;;;;;3.60;3.00;;;;;;;23.79;39.58;98954.83;436913;1254;138631;-65
2023/06/17 16:21:31;;;;;;;3.00;2.70;;;;;;;23.77;39.80;98957.46;436767;1251;138829;-66
2023/06/17 16:31:34;;;;;;;3.60;3.30;;;;;;;23.70;40.18;98965.38;436144;1255;141587;-66
2023/06/17 16:41:37;;;;;;;7.10;6.50;;;;;;;23.30;41.32;98975.72;436337;1250;138214;-65
2023/06/17 16:51:40;;;;;;;7.20;6.70;;;;;;;22.60;43.80;98989.61;436653;1255;138645;-65
2023/06/17 17:01:43;;;;;;;7.60;6.60;;;;;;;22.15;45.53;98998.57;436147;1254;139715;-66
2023/06/17 17:11:46;;;;;;;10.30;8.00;;;;;;;21.77;46.78;99006.09;436103;1253;139161;-65
2023/06/17 17:21:49;;;;;;;8.00;7.30;;;;;;;21.36;47.46;99013.44;436201;1253;139079;-65
2023/06/17 17:31:52;;;;;;;8.40;7.40;;;;;;;20.99;48.54;99023.66;436281;1253;139694;-66
2023/06/17 17:41:55;;;;;;;9.00;7.40;;;;;;;20.70;49.87;99027.09;436131;1255;138456;-66
2023/06/17 17:51:58;;;;;;;8.30;7.20;;;;;;;20.51;50.63;99032.52;435623;1253;138771;-66
2023/06/17 18:02:01;;;;;;;8.40;7.70;;;;;;;20.33;51.61;99035.44;435548;1252;139079;-65
2023/06/17 18:12:07;;;;;;;8.80;8.00;;;;;;;20.12;52.45;99036.02;436112;1255;138852;-65
2023/06/17 18:22:10;;;;;;;8.40;7.70;;;;;;;19.86;53.44;99038.29;436562;1250;139531;-66
2023/06/17 18:32:13;;;;;;;10.00;8.80;;;;;;;19.65;54.32;99042.95;436269;1254;138936;-66
2023/06/17 18:42:16;;;;;;;10.90;9.70;;;;;;;19.45;55.86;99049.95;435922;1255;140298;-65
2023/06/17 18:52:19;;;;;;;11.80;10.40;;;;;;;19.18;56.96;99059.41;436494;1254;138820;-66
2023/06/17 19:02:22;;;;;;;10.90;9.90;;;;;;;18.85;58.31;99075.84;436295;1251;139032;-65
2023/06/17 19:12:29;;;;;;;11.80;9.30;;;;;;;18.52;59.23;99092.98;436370;1256;139033;-65
2023/06/17 19:22:35;;;;;;;10.70;9.70;;;;;;;18.37;59.97;99109.27;437025;1254;138633;-65
2023/06/17 19:32:38;;;;;;;7.50;6.80;;;;;;;18.21;60.32;99122.45;436668;1254;324131;-66
2023/06/17 19:42:41;;;;;;;12.50;8.70;;;;;;;18.04;60.39;99140.94;436264;1254;139389;-64
2023/06/17 19:52:44;;;;;;;8.00;7.40;;;;;;;18.02;61.48;99158.67;436502;1256;139150;-65
2023/06/17 20:02:48;;;;;;;9.00;7.80;;;;;;;18.01;62.03;99164.96;436216;1253;138426;-66
2023/06/17 20:12:57;;;;;;;7.70;6.60;;;;;;;17.97;62.18;99163.38;436440;1255;139417;-65
2023/06/17 20:23:00;;;;;;;6.40;5.90;;;;;;;17.99;62.00;99153.96;436857;1255;139814;-65
2023/06/17 20:33:03;;;;;;;5.00;4.50;;;;;;;17.89;61.96;99147.27;436734;1251;138771;-66
2023/06/17 20:43:09;;;;;;;6.70;3.90;;;;;;;17.68;61.74;99142.61;436558;1256;138803;-66
2023/06/17 20:53:12;;;;;;;5.30;4.80;;;;;;;17.64;62.10;99157.10;436864;1251;139791;-66
2023/06/17 21:03:15;;;;;;;3.90;3.60;;;;;;;17.59;61.98;99153.05;436377;1256;140296;-66
2023/06/17 21:13:18;;;;;;;4.00;3.30;;;;;;;17.42;61.96;99139.54;436582;1256;139307;-67
2023/06/17 21:23:23;;;;;;;5.80;5.30;;;;;;;17.26;62.48;99139.17;436593;1256;138631;-67
2023/06/17 21:33:26;;;;;;;5.30;4.10;;;;;;;17.13;63.28;99140.10;436748;1256;139344;-65
2023/06/17 21:43:32;;;;;;;10.70;5.50;;;;;;;17.04;64.15;99144.62;436714;1253;138899;-65
2023/06/17 21:53:35;;;;;;;4.90;4.40;;;;;;;16.92;64.94;99147.90;436835;1254;139588;-66
2023/06/17 22:03:39;;;;;;;5.00;4.10;;;;;;;16.81;65.41;99143.53;436351;1256;138791;-66
2023/06/17 22:13:42;;;;;;;6.00;4.90;;;;;;;16.66;65.85;99150.23;436177;1255;139198;-65
2023/06/17 22:23:45;;;;;;;7.10;5.40;;;;;;;16.38;66.47;99154.09;436461;1255;138690;-65
2023/06/17 22:33:48;;;;;;;7.20;6.50;;;;;;;16.04;67.61;99151.67;436303;1257;138835;-66
2023/06/17 22:43:51;;;;;;;9.60;7.80;;;;;;;15.80;68.54;99143.45;436485;1251;139615;-68
2023/06/17 22:53:54;;;;;;;9.90;7.70;;;;;;;15.49;69.34;99139.36;436635;1253;138899;-65
2023/06/17 23:03:57;;;;;;;7.40;6.70;;;;;;;15.27;70.19;99133.64;436993;1255;140143;-66
2023/06/17 23:14:01;;;;;;;7.80;7.00;;;;;;;14.98;70.88;99131.41;436197;1251;139960;-67
2023/06/17 23:24:05;;;;;;;8.20;7.10;;;;;;;14.69;71.67;99131.14;436741;1251;138965;-68
2023/06/17 23:34:08;;;;;;;8.20;7.40;;;;;;;14.43;72.85;99135.17;437017;1251;138671;-66
2023/06/17 23:44:12;;;;;;;15.90;8.20;;;;;;;14.20;73.51;99141.05;436556;1251;139713;-66
2023/06/17 23:54:15;;;;;;;8.90;8.20;;;;;;;13.98;73.87;99138.90;436658;1252;139343;-65
